createdAt,value
2022-09-15T00:01:12.086Z,78.75
2022-09-15T00:03:42.330Z,78.62
2022-09-15T00:06:10.342Z,78.60
2022-09-15T00:08:38.394Z,78.63
2022-09-15T00:11:09.524Z,78.90
2022-09-15T00:13:38.477Z,78.73
2022-09-15T00:16:06.754Z,78.64
2022-09-15T00:18:35.041Z,78.93
2022-09-15T00:21:07.903Z,78.86
2022-09-15T00:23:36.441Z,78.95
2022-09-15T00:26:07.025Z,78.97
2022-09-15T00:28:34.723Z,79.10
2022-09-15T00:31:08.045Z,79.12
2022-09-15T00:33:36.257Z,79.27
2022-09-15T00:36:06.786Z,79.34
2022-09-15T00:38:35.474Z,79.33
2022-09-15T00:41:04.250Z,79.34
2022-09-15T00:43:52.340Z,79.46
2022-09-15T00:46:32.348Z,79.46
2022-09-15T00:49:21.534Z,79.40
2022-09-15T00:51:58.398Z,79.50
2022-09-15T00:54:44.771Z,79.52
2022-09-15T00:57:15.743Z,79.52
2022-09-15T00:59:44.642Z,79.55
2022-09-15T01:02:21.574Z,79.39
2022-09-15T01:04:52.761Z,79.57
2022-09-15T01:07:24.933Z,79.60
2022-09-15T01:09:56.238Z,79.54
2022-09-15T01:12:25.274Z,79.55
2022-09-15T01:14:52.759Z,79.17
2022-09-15T01:17:23.822Z,79.26
2022-09-15T01:20:16.126Z,79.67
2022-09-15T01:22:53.123Z,79.65
2022-09-15T01:25:53.019Z,79.68
2022-09-15T01:28:43.455Z,79.95
2022-09-15T01:31:31.940Z,79.83
2022-09-15T01:34:05.890Z,79.82
2022-09-15T01:36:48.023Z,79.84
2022-09-15T01:39:21.347Z,80.06
2022-09-15T01:41:52.585Z,79.96
2022-09-15T01:44:25.765Z,80.02
2022-09-15T01:46:56.592Z,80.09
2022-09-15T01:49:26.443Z,80.04
2022-09-15T01:51:54.414Z,80.05
2022-09-15T01:54:28.285Z,79.97
2022-09-15T01:56:56.716Z,79.77
2022-09-15T01:59:24.437Z,79.87
2022-09-15T02:02:04.897Z,79.74
2022-09-15T02:04:38.824Z,79.91
2022-09-15T02:07:12.704Z,80.04
2022-09-15T02:09:49.650Z,80.25
2022-09-15T02:12:33.612Z,80.37
2022-09-15T02:15:06.508Z,80.32
2022-09-15T02:17:38.539Z,80.23
2022-09-15T02:20:15.688Z,80.40
2022-09-15T02:22:55.243Z,80.43
2022-09-15T02:25:26.386Z,80.63
2022-09-15T02:27:55.877Z,80.61
2022-09-15T02:30:23.567Z,80.59
2022-09-15T02:32:56.300Z,80.84
2022-09-15T02:35:26.114Z,80.88
2022-09-15T02:37:54.252Z,80.77
2022-09-15T02:40:22.713Z,81.12
2022-09-15T02:42:56.309Z,80.87
2022-09-15T02:45:24.971Z,81.07
2022-09-15T02:47:52.647Z,81.01
2022-09-15T02:50:20.738Z,81.19
2022-09-15T02:52:48.233Z,81.03
2022-09-15T02:55:16.008Z,81.29
2022-09-15T02:57:43.610Z,81.26
2022-09-15T03:00:12.494Z,81.47
2022-09-15T03:02:46.774Z,81.63
2022-09-15T03:05:14.733Z,81.58
2022-09-15T03:07:43.020Z,81.41
2022-09-15T03:10:12.051Z,81.47
2022-09-15T03:12:45.618Z,81.17
2022-09-15T03:15:14.808Z,81.44
2022-09-15T03:17:43.549Z,81.28
2022-09-15T03:20:13.552Z,81.30
2022-09-15T03:22:41.181Z,81.26
2022-09-15T03:25:10.194Z,81.37
2022-09-15T03:27:38.262Z,81.46
2022-09-15T03:30:07.731Z,81.44
2022-09-15T03:32:35.646Z,81.44
2022-09-15T03:35:04.423Z,81.49
2022-09-15T03:37:32.599Z,81.43
2022-09-15T03:40:00.421Z,81.39
2022-09-15T03:42:31.604Z,81.26
2022-09-15T03:44:59.281Z,81.44
2022-09-15T03:47:30.029Z,81.53
2022-09-15T03:49:58.745Z,81.36
2022-09-15T03:52:26.350Z,81.40
2022-09-15T03:54:58.586Z,81.49
2022-09-15T03:57:26.528Z,81.49
2022-09-15T03:59:54.531Z,81.63
2022-09-15T04:02:24.751Z,81.74
2022-09-15T04:04:52.398Z,81.72
2022-09-15T04:07:20.788Z,81.79
2022-09-15T04:09:48.773Z,81.87
2022-09-15T04:12:18.185Z,81.83
2022-09-15T04:14:45.622Z,81.89
2022-09-15T04:17:14.954Z,81.97
2022-09-15T04:19:42.778Z,82.03
2022-09-15T04:22:13.201Z,81.98
2022-09-15T04:24:39.108Z,82.04
2022-09-15T04:27:06.265Z,82.04
2022-09-15T04:29:33.637Z,81.94
2022-09-15T04:32:24.122Z,81.85
2022-09-15T04:34:55.714Z,82.04
2022-09-15T04:37:23.201Z,82.03
2022-09-15T04:39:50.637Z,82.17
2022-09-15T04:45:08.253Z,82.21
2022-09-15T04:47:35.635Z,82.19
2022-09-15T04:50:03.007Z,82.02
2022-09-15T04:52:31.027Z,82.02
2022-09-15T04:54:58.470Z,82.11
2022-09-15T04:57:26.044Z,81.99
2022-09-15T04:59:53.217Z,82.07
2022-09-15T05:02:20.703Z,82.01
2022-09-15T05:04:48.697Z,81.95
2022-09-15T05:07:16.177Z,81.98
2022-09-15T05:09:43.772Z,81.98
2022-09-15T05:12:11.397Z,81.96
2022-09-15T05:14:38.540Z,81.88
2022-09-15T05:17:05.697Z,81.97
2022-09-15T05:19:33.577Z,82.01
2022-09-15T05:22:00.936Z,81.87
2022-09-15T05:24:28.309Z,81.78
2022-09-15T05:26:55.608Z,81.61
2022-09-15T05:29:23.102Z,81.59
2022-09-15T05:31:50.827Z,81.67
2022-09-15T05:34:18.137Z,81.71
2022-09-15T05:36:45.663Z,81.62
2022-09-15T05:39:12.927Z,81.58
2022-09-15T05:41:40.673Z,81.57
2022-09-15T05:44:09.846Z,81.51
2022-09-15T05:46:37.367Z,81.31
2022-09-15T05:49:05.029Z,81.26
2022-09-15T05:51:32.779Z,81.26
2022-09-15T05:54:00.147Z,81.19
2022-09-15T05:56:27.498Z,81.26
2022-09-15T05:58:54.773Z,81.14
2022-09-15T06:01:24.567Z,81.02
2022-09-15T06:03:52.853Z,81.20
2022-09-15T06:06:21.555Z,81.28
2022-09-15T06:08:57.438Z,81.21
2022-09-15T06:11:24.657Z,81.22
2022-09-15T06:13:52.212Z,81.04
2022-09-15T06:16:23.840Z,80.77
2022-09-15T06:18:52.869Z,80.66
2022-09-15T06:21:26.228Z,80.44
2022-09-15T06:23:56.151Z,80.35
2022-09-15T06:26:23.696Z,80.25
2022-09-15T06:28:53.155Z,80.03
2022-09-15T06:31:21.167Z,79.92
2022-09-15T06:33:50.599Z,79.88
2022-09-15T06:36:19.790Z,79.83
2022-09-15T06:38:47.765Z,79.85
2022-09-15T06:41:15.322Z,79.78
2022-09-15T06:43:43.270Z,79.76
2022-09-15T06:46:16.701Z,79.79
2022-09-15T06:48:48.192Z,79.76
2022-09-15T06:51:16.402Z,79.75
2022-09-15T06:53:45.098Z,79.75
2022-09-15T06:56:15.309Z,79.69
2022-09-15T06:58:43.335Z,79.62
2022-09-15T07:01:24.787Z,79.68
2022-09-15T07:03:52.316Z,79.71
2022-09-15T07:06:20.517Z,79.71
2022-09-15T07:08:49.338Z,79.65
2022-09-15T07:11:17.861Z,79.61
2022-09-15T07:13:46.520Z,79.49
2022-09-15T07:16:14.170Z,79.46
2022-09-15T07:18:43.528Z,79.40
2022-09-15T07:21:13.159Z,79.33
2022-09-15T07:23:40.738Z,79.42
2022-09-15T07:26:17.459Z,79.26
2022-09-15T07:28:49.427Z,79.27
2022-09-15T07:31:19.069Z,79.23
2022-09-15T07:33:47.069Z,79.22
2022-09-15T07:36:15.144Z,79.25
2022-09-15T07:38:44.714Z,79.19
2022-09-15T07:41:14.225Z,79.22
2022-09-15T07:43:50.062Z,79.33
2022-09-15T07:46:18.570Z,79.33
2022-09-15T07:48:46.862Z,79.33
2022-09-15T07:51:14.680Z,79.36
2022-09-15T07:53:43.550Z,79.35
2022-09-15T07:56:10.847Z,79.37
2022-09-15T07:58:38.428Z,79.59
2022-09-15T08:01:07.786Z,79.54
2022-09-15T08:03:35.177Z,79.47
2022-09-15T08:06:03.381Z,79.50
2022-09-15T08:08:30.584Z,79.44
2022-09-15T08:10:57.890Z,79.64
2022-09-15T08:13:25.483Z,79.60
2022-09-15T08:15:53.089Z,79.55
2022-09-15T08:18:20.494Z,79.53
2022-09-15T08:20:47.679Z,79.54
2022-09-15T08:23:15.157Z,79.39
2022-09-15T08:25:42.593Z,79.43
2022-09-15T08:28:09.776Z,79.49
2022-09-15T08:30:38.244Z,79.45
2022-09-15T08:33:05.336Z,79.41
2022-09-15T08:35:33.762Z,79.28
2022-09-15T08:38:00.819Z,79.19
2022-09-15T08:40:34.569Z,79.05
2022-09-15T08:43:05.599Z,78.96
2022-09-15T08:45:36.432Z,78.98
2022-09-15T08:48:04.997Z,78.97
2022-09-15T08:50:37.846Z,78.99
2022-09-15T08:53:14.010Z,79.00
2022-09-15T08:55:48.912Z,79.00
2022-09-15T08:58:24.791Z,79.12
2022-09-15T09:01:12.498Z,79.06
2022-09-15T09:04:00.014Z,79.08
2022-09-15T09:07:04.623Z,78.96
2022-09-15T09:09:43.930Z,78.95
2022-09-15T09:12:20.495Z,78.94
2022-09-15T09:15:00.351Z,79.03
2022-09-15T09:17:59.130Z,79.14
2022-09-15T09:20:39.210Z,78.91
2022-09-15T09:23:10.687Z,79.00
2022-09-15T09:25:38.163Z,79.06
2022-09-15T09:28:06.423Z,79.20
2022-09-15T09:30:34.821Z,79.26
2022-09-15T09:33:20.941Z,79.29
2022-09-15T09:35:52.117Z,79.28
2022-09-15T09:38:22.480Z,79.26
2022-09-15T09:40:50.510Z,79.00
2022-09-15T09:43:18.169Z,79.02
2022-09-15T09:45:45.616Z,78.90
2022-09-15T09:48:19.927Z,78.74
2022-09-15T09:50:49.120Z,78.61
2022-09-15T09:53:23.287Z,78.29
2022-09-15T09:55:52.727Z,78.18
2022-09-15T09:58:22.009Z,77.97
2022-09-15T10:00:50.799Z,77.60
2022-09-15T10:03:20.668Z,77.45
2022-09-15T10:06:07.327Z,77.52
2022-09-15T10:08:36.111Z,77.00
2022-09-15T10:11:06.128Z,76.55
2022-09-15T10:13:35.222Z,76.32
2022-09-15T10:16:05.060Z,76.26
2022-09-15T10:18:37.628Z,75.64
2022-09-15T10:21:07.098Z,75.76
2022-09-15T10:23:34.824Z,75.50
2022-09-15T10:26:34.026Z,75.29
2022-09-15T10:31:46.477Z,75.35
2022-09-15T10:34:34.609Z,75.46
2022-09-15T10:37:09.436Z,75.38
2022-09-15T10:39:56.017Z,75.15
2022-09-15T10:42:37.891Z,74.89
2022-09-15T10:45:27.214Z,74.57
2022-09-15T10:48:11.666Z,74.29
2022-09-15T10:51:06.948Z,73.94
2022-09-15T10:53:57.581Z,73.35
2022-09-15T10:56:36.297Z,72.53
2022-09-15T10:59:10.305Z,72.31
2022-09-15T11:01:57.813Z,72.18
2022-09-15T11:04:56.107Z,72.04
2022-09-15T11:07:56.224Z,72.19
2022-09-15T11:10:28.375Z,71.79
2022-09-15T11:13:30.010Z,71.49
2022-09-15T11:16:28.184Z,70.48
2022-09-15T11:19:25.764Z,68.37
2022-09-15T11:22:02.036Z,69.15
2022-09-15T11:24:50.369Z,67.96
2022-09-15T11:27:27.864Z,68.08
2022-09-15T11:30:12.880Z,66.41
2022-09-15T11:32:47.587Z,66.43
2022-09-15T11:35:54.102Z,66.42
2022-09-15T11:38:52.575Z,65.41
2022-09-15T11:41:26.080Z,66.25
2022-09-15T11:44:24.603Z,66.48
2022-09-15T11:46:57.031Z,66.80
2022-09-15T11:49:38.844Z,67.06
2022-09-15T11:52:15.876Z,67.22
2022-09-15T11:54:46.910Z,66.78
2022-09-15T11:57:23.323Z,66.79
2022-09-15T12:00:00.978Z,66.04
2022-09-15T12:02:35.067Z,66.86
2022-09-15T12:05:33.071Z,66.68
2022-09-15T12:08:27.889Z,66.91
2022-09-15T12:10:56.906Z,67.08
2022-09-15T12:13:25.543Z,67.16
2022-09-15T12:15:53.945Z,67.26
2022-09-15T12:18:39.949Z,67.17
2022-09-15T12:21:19.428Z,67.04
2022-09-15T12:23:53.233Z,66.93
2022-09-15T12:26:23.264Z,66.90
2022-09-15T12:29:01.560Z,66.44
2022-09-15T12:31:35.746Z,66.47
2022-09-15T12:34:23.781Z,66.04
2022-09-15T12:36:57.137Z,66.86
2022-09-15T12:39:40.233Z,66.75
2022-09-15T12:42:18.408Z,65.83
2022-09-15T12:45:01.345Z,63.77
2022-09-15T12:47:36.434Z,63.27
2022-09-15T12:50:25.357Z,63.42
2022-09-15T12:52:56.747Z,62.69
2022-09-15T12:55:28.620Z,62.77
2022-09-15T12:57:59.769Z,62.38
2022-09-15T13:00:33.105Z,62.23
2022-09-15T13:03:02.030Z,61.26
2022-09-15T13:05:46.290Z,62.02
2022-09-15T13:08:32.759Z,61.86
2022-09-15T13:11:08.162Z,61.21
2022-09-15T13:13:59.968Z,60.15
2022-09-15T13:16:30.921Z,60.19
2022-09-15T13:19:24.862Z,58.54
2022-09-15T13:22:04.354Z,58.98
2022-09-15T13:24:47.313Z,57.68
2022-09-15T13:27:18.566Z,57.93
2022-09-15T13:30:24.539Z,57.97
2022-09-15T13:33:21.450Z,57.46
2022-09-15T13:36:04.365Z,56.28
2022-09-15T13:38:41.358Z,56.70
2022-09-15T13:41:35.496Z,56.55
2022-09-15T13:44:18.218Z,56.79
2022-09-15T13:46:53.114Z,56.42
2022-09-15T13:49:27.011Z,56.71
2022-09-15T13:52:00.436Z,57.48
2022-09-15T13:54:28.019Z,58.07
2022-09-15T13:56:58.792Z,58.37
2022-09-15T13:59:31.194Z,58.49
2022-09-15T14:02:00.540Z,57.88
2022-09-15T14:04:30.581Z,57.78
2022-09-15T14:07:01.263Z,58.36
2022-09-15T14:09:44.590Z,58.22
2022-09-15T14:12:14.553Z,58.76
2022-09-15T14:14:51.802Z,59.24
2022-09-15T14:17:24.737Z,59.52
2022-09-15T14:20:00.066Z,59.64
2022-09-15T14:22:31.298Z,59.92
2022-09-15T14:25:10.624Z,60.02
2022-09-15T14:27:41.688Z,60.13
2022-09-15T14:30:19.021Z,60.10
2022-09-15T14:32:51.496Z,60.11
2022-09-15T14:35:26.186Z,60.39
2022-09-15T14:37:56.210Z,60.72
2022-09-15T14:40:37.403Z,61.03
2022-09-15T14:43:15.277Z,61.18
2022-09-15T14:45:55.918Z,61.19
2022-09-15T14:48:17.969Z,61.07
2022-09-15T14:50:50.009Z,60.91
2022-09-15T14:53:19.634Z,60.99
2022-09-15T14:55:50.274Z,61.11
2022-09-15T14:58:24.288Z,61.19
2022-09-15T15:00:56.037Z,61.18
2022-09-15T15:03:33.666Z,61.32
2022-09-15T15:06:28.306Z,61.64
2022-09-15T15:08:44.002Z,62.41
2022-09-15T15:11:14.455Z,62.61
2022-09-15T15:13:43.885Z,62.76
2022-09-15T15:16:15.276Z,62.87
2022-09-15T15:18:43.412Z,62.98
2022-09-15T15:21:37.775Z,63.07
2022-09-15T15:24:17.648Z,63.38
2022-09-15T15:26:46.835Z,63.26
2022-09-15T15:29:42.849Z,63.50
2022-09-15T15:32:15.714Z,63.87
2022-09-15T15:34:59.929Z,63.97
2022-09-15T15:37:31.950Z,64.08
2022-09-15T15:40:07.471Z,64.25
2022-09-15T15:42:35.299Z,64.41
2022-09-15T15:45:21.920Z,64.55
2022-09-15T15:47:49.366Z,65.16
2022-09-15T15:50:25.609Z,64.94
2022-09-15T15:52:55.156Z,65.15
2022-09-15T15:55:26.778Z,65.20
2022-09-15T15:57:55.719Z,65.49
2022-09-15T16:00:29.988Z,65.77
2022-09-15T16:02:57.342Z,65.86
2022-09-15T16:05:30.279Z,65.73
2022-09-15T16:08:02.356Z,65.99
2022-09-15T16:10:39.215Z,66.41
2022-09-15T16:13:12.259Z,66.26
2022-09-15T16:15:41.397Z,66.50
2022-09-15T16:18:09.806Z,67.00
2022-09-15T16:20:40.929Z,67.19
2022-09-15T16:23:14.194Z,67.61
2022-09-15T16:25:54.667Z,67.76
2022-09-15T16:28:25.844Z,67.99
2022-09-15T16:30:53.199Z,68.00
2022-09-15T16:33:21.151Z,68.18
2022-09-15T16:35:51.986Z,68.00
2022-09-15T16:38:21.100Z,67.91
2022-09-15T16:40:49.545Z,67.75
2022-09-15T16:43:18.570Z,67.67
2022-09-15T16:45:46.256Z,67.72
2022-09-15T16:48:15.433Z,67.77
2022-09-15T16:51:09.575Z,67.67
2022-09-15T16:53:21.157Z,67.64
2022-09-15T16:55:50.351Z,67.59
2022-09-15T16:58:19.282Z,67.57
2022-09-15T17:00:47.912Z,67.56
2022-09-15T17:03:21.872Z,67.59
2022-09-15T17:05:55.501Z,67.63
2022-09-15T17:08:27.672Z,67.69
2022-09-15T17:11:03.150Z,67.78
2022-09-15T17:13:33.194Z,67.69
2022-09-15T17:16:01.132Z,67.82
2022-09-15T17:18:28.932Z,67.85
2022-09-15T17:20:56.452Z,67.94
2022-09-15T17:23:35.527Z,68.01
2022-09-15T17:26:06.236Z,68.17
2022-09-15T17:28:36.080Z,68.22
2022-09-15T17:31:07.290Z,68.34
2022-09-15T17:33:35.452Z,68.61
2022-09-15T17:36:04.034Z,68.70
2022-09-15T17:38:32.272Z,68.80
2022-09-15T17:41:00.509Z,69.03
2022-09-15T17:43:30.110Z,69.07
2022-09-15T17:45:58.201Z,69.11
2022-09-15T17:55:23.271Z,69.40
2022-09-15T17:58:12.357Z,69.50
2022-09-15T18:00:44.205Z,69.51
2022-09-15T18:03:28.338Z,69.58
2022-09-15T18:06:06.470Z,69.58
2022-09-15T18:08:43.367Z,69.58
2022-09-15T18:11:20.974Z,69.63
2022-09-15T18:16:42.522Z,69.52
2022-09-15T18:19:15.031Z,69.61
2022-09-15T18:21:52.728Z,69.70
2022-09-15T18:24:23.821Z,69.68
2022-09-15T18:27:03.767Z,69.53
2022-09-15T18:29:35.562Z,69.47
2022-09-15T18:32:03.670Z,69.36
2022-09-15T18:34:37.529Z,69.29
2022-09-15T18:37:05.059Z,69.32
2022-09-15T18:39:36.680Z,69.35
2022-09-15T18:42:07.910Z,69.36
2022-09-15T18:44:36.206Z,69.44
2022-09-15T18:47:06.959Z,69.38
2022-09-15T18:49:36.784Z,69.41
2022-09-15T18:52:08.634Z,69.39
2022-09-15T18:54:39.434Z,69.41
2022-09-15T18:57:11.113Z,69.49
2022-09-15T18:59:42.284Z,69.59
2022-09-15T19:02:11.577Z,69.77
2022-09-15T19:04:40.825Z,69.76
2022-09-15T19:07:09.879Z,69.83
2022-09-15T19:09:40.512Z,70.31
2022-09-15T19:12:08.252Z,70.52
2022-09-15T19:14:35.842Z,70.82
2022-09-15T19:17:03.714Z,71.11
2022-09-15T19:19:32.322Z,71.14
2022-09-15T19:21:59.802Z,71.14
2022-09-15T19:24:29.313Z,71.46
2022-09-15T19:26:57.567Z,71.75
2022-09-15T19:29:25.624Z,72.04
2022-09-15T19:31:53.730Z,72.37
2022-09-15T19:34:23.017Z,72.39
2022-09-15T19:36:50.602Z,72.83
2022-09-15T19:39:26.783Z,73.00
2022-09-15T19:42:04.955Z,72.90
2022-09-15T19:44:33.070Z,73.02
2022-09-15T19:47:00.571Z,73.21
2022-09-15T19:49:28.715Z,73.19
2022-09-15T19:51:58.824Z,73.48
2022-09-15T19:54:28.789Z,73.61
2022-09-15T19:56:56.771Z,73.97
2022-09-15T19:59:30.221Z,74.31
2022-09-15T20:01:53.977Z,74.89
2022-09-15T20:04:21.472Z,75.17
2022-09-15T20:06:49.045Z,75.45
2022-09-15T20:09:17.121Z,75.49
2022-09-15T20:11:44.571Z,75.32
2022-09-15T20:14:11.884Z,75.59
2022-09-15T20:16:46.575Z,75.84
2022-09-15T20:19:14.282Z,76.15
2022-09-15T20:21:50.193Z,76.20
2022-09-15T20:24:16.404Z,76.56
2022-09-15T20:26:44.208Z,76.37
2022-09-15T20:29:13.704Z,76.59
2022-09-15T20:31:42.142Z,76.72
2022-09-15T20:34:09.713Z,76.88
2022-09-15T20:36:38.600Z,76.97
2022-09-15T20:39:09.871Z,77.10
2022-09-15T20:41:37.734Z,76.97
2022-09-15T20:44:07.574Z,76.98
2022-09-15T20:46:38.626Z,76.87
2022-09-15T20:49:06.965Z,76.68
2022-09-15T20:51:34.712Z,76.65
2022-09-15T20:54:03.702Z,76.68
2022-09-15T20:56:34.310Z,76.94
2022-09-15T20:59:03.141Z,76.82
2022-09-15T21:01:37.419Z,77.44
2022-09-15T21:04:08.386Z,77.39
2022-09-15T21:06:37.886Z,77.10
2022-09-15T21:09:05.757Z,77.62
2022-09-15T21:11:33.680Z,78.00
2022-09-15T21:14:01.612Z,78.24
2022-09-15T21:16:29.639Z,78.07
2022-09-15T21:18:58.988Z,78.27
2022-09-15T21:21:32.090Z,78.52
2022-09-15T21:24:05.640Z,78.42
2022-09-15T21:26:41.371Z,78.50
2022-09-15T21:29:08.995Z,78.35
2022-09-15T21:31:36.626Z,78.33
2022-09-15T21:34:04.375Z,78.49
2022-09-15T21:36:32.142Z,78.58
2022-09-15T21:38:59.865Z,78.59
2022-09-15T21:41:29.376Z,78.42
2022-09-15T21:43:58.586Z,78.51
2022-09-15T21:46:30.609Z,78.41
2022-09-15T21:48:59.282Z,78.42
2022-09-15T21:51:28.607Z,78.26
2022-09-15T21:53:57.918Z,78.18
2022-09-15T21:56:27.210Z,78.16
2022-09-15T21:58:55.064Z,77.97
2022-09-15T22:01:25.918Z,78.48
2022-09-15T22:03:58.463Z,78.71
2022-09-15T22:06:29.733Z,78.99
2022-09-15T22:08:59.028Z,79.15
2022-09-15T22:11:26.846Z,78.91
2022-09-15T22:13:55.377Z,79.00
2022-09-15T22:16:23.896Z,78.90
2022-09-15T22:18:52.328Z,78.87
2022-09-15T22:21:25.095Z,78.73
2022-09-15T22:23:55.117Z,78.96
2022-09-15T22:26:28.937Z,79.17
2022-09-15T22:28:57.999Z,79.03
2022-09-15T22:31:26.306Z,79.06
2022-09-15T22:33:54.357Z,79.18
2022-09-15T22:36:28.839Z,79.34
2022-09-15T22:38:54.546Z,79.24
2022-09-15T22:41:24.197Z,79.16
2022-09-15T22:43:51.894Z,79.15
2022-09-15T22:46:20.046Z,79.28
2022-09-15T22:48:48.120Z,79.43
2022-09-15T22:51:15.926Z,79.53
2022-09-15T22:53:43.628Z,79.86
2022-09-15T22:56:18.128Z,80.17
2022-09-15T22:58:47.562Z,80.23
2022-09-15T23:01:18.237Z,80.43
2022-09-15T23:03:51.846Z,80.39
2022-09-15T23:06:20.369Z,80.13
2022-09-15T23:08:55.868Z,80.12
2022-09-15T23:11:24.513Z,80.29
2022-09-15T23:13:52.870Z,80.25
2022-09-15T23:16:21.425Z,80.30
2022-09-15T23:18:49.942Z,80.39
2022-09-15T23:21:17.715Z,80.33
2022-09-15T23:23:47.749Z,80.48
2022-09-15T23:26:18.753Z,80.40
2022-09-15T23:28:46.767Z,80.65
2022-09-15T23:31:15.118Z,80.78
2022-09-15T23:33:43.110Z,80.85
2022-09-15T23:36:15.987Z,81.03
2022-09-15T23:38:44.813Z,81.23
2022-09-15T23:41:13.139Z,81.01
2022-09-15T23:43:40.944Z,80.99
2022-09-15T23:46:09.270Z,81.20
2022-09-15T23:48:37.211Z,81.34
2022-09-15T23:51:05.496Z,81.08
2022-09-15T23:53:33.504Z,80.87
2022-09-15T23:56:01.498Z,81.13
2022-09-15T23:58:29.269Z,81.22
